sensor_id;sensor_type;location;lat;lon;timestamp;P1;durP1;ratioP1;P2;durP2;ratioP2
58621;SDS011;44389;51.578;5.456;2023-05-18T00:02:03;18.48;;;6.53;;
58621;SDS011;44389;51.578;5.456;2023-05-18T00:04:30;20.83;;;6.63;;
58621;SDS011;44389;51.578;5.456;2023-05-18T00:06:57;15.38;;;5.90;;
58621;SDS011;44389;51.578;5.456;2023-05-18T00:09:27;17.23;;;6.43;;
58621;SDS011;44389;51.578;5.456;2023-05-18T00:11:53;17.38;;;6.47;;
58621;SDS011;44389;51.578;5.456;2023-05-18T00:14:19;18.60;;;6.38;;
58621;SDS011;44389;51.578;5.456;2023-05-18T00:16:45;16.15;;;6.70;;
58621;SDS011;44389;51.578;5.456;2023-05-18T00:19:11;17.15;;;6.63;;
58621;SDS011;44389;51.578;5.456;2023-05-18T00:21:43;16.65;;;6.40;;
58621;SDS011;44389;51.578;5.456;2023-05-18T00:24:13;14.57;;;6.03;;
58621;SDS011;44389;51.578;5.456;2023-05-18T00:26:39;14.68;;;7.07;;
58621;SDS011;44389;51.578;5.456;2023-05-18T00:29:05;17.15;;;6.35;;
58621;SDS011;44389;51.578;5.456;2023-05-18T00:31:32;15.30;;;6.78;;
58621;SDS011;44389;51.578;5.456;2023-05-18T00:34:02;12.88;;;6.40;;
58621;SDS011;44389;51.578;5.456;2023-05-18T00:36:28;14.13;;;7.13;;
58621;SDS011;44389;51.578;5.456;2023-05-18T00:38:55;19.52;;;7.07;;
58621;SDS011;44389;51.578;5.456;2023-05-18T00:41:20;22.17;;;7.03;;
58621;SDS011;44389;51.578;5.456;2023-05-18T00:43:46;17.13;;;7.25;;
58621;SDS011;44389;51.578;5.456;2023-05-18T00:46:12;15.98;;;6.70;;
58621;SDS011;44389;51.578;5.456;2023-05-18T00:48:37;15.02;;;7.20;;
58621;SDS011;44389;51.578;5.456;2023-05-18T00:51:03;14.15;;;6.82;;
58621;SDS011;44389;51.578;5.456;2023-05-18T00:53:29;14.48;;;6.82;;
58621;SDS011;44389;51.578;5.456;2023-05-18T00:55:54;16.77;;;6.82;;
58621;SDS011;44389;51.578;5.456;2023-05-18T00:58:20;18.73;;;7.60;;
58621;SDS011;44389;51.578;5.456;2023-05-18T01:00:45;17.92;;;7.75;;
58621;SDS011;44389;51.578;5.456;2023-05-18T01:03:11;18.25;;;6.85;;
58621;SDS011;44389;51.578;5.456;2023-05-18T01:05:39;15.45;;;7.57;;
58621;SDS011;44389;51.578;5.456;2023-05-18T01:08:04;18.17;;;7.60;;
58621;SDS011;44389;51.578;5.456;2023-05-18T01:13:00;17.52;;;6.70;;
58621;SDS011;44389;51.578;5.456;2023-05-18T01:15:38;20.38;;;6.95;;
58621;SDS011;44389;51.578;5.456;2023-05-18T01:26:16;16.27;;;7.20;;
58621;SDS011;44389;51.578;5.456;2023-05-18T01:28:49;15.02;;;7.60;;
58621;SDS011;44389;51.578;5.456;2023-05-18T01:31:16;17.80;;;7.30;;
58621;SDS011;44389;51.578;5.456;2023-05-18T01:33:42;14.73;;;7.38;;
58621;SDS011;44389;51.578;5.456;2023-05-18T01:36:08;18.93;;;7.57;;
58621;SDS011;44389;51.578;5.456;2023-05-18T01:38:34;14.88;;;7.47;;
58621;SDS011;44389;51.578;5.456;2023-05-18T01:41:03;20.20;;;8.10;;
58621;SDS011;44389;51.578;5.456;2023-05-18T01:43:34;13.13;;;7.22;;
58621;SDS011;44389;51.578;5.456;2023-05-18T01:46:08;17.98;;;7.47;;
58621;SDS011;44389;51.578;5.456;2023-05-18T01:48:58;18.45;;;7.57;;
58621;SDS011;44389;51.578;5.456;2023-05-18T01:51:28;13.80;;;7.55;;
58621;SDS011;44389;51.578;5.456;2023-05-18T01:53:59;17.48;;;7.85;;
58621;SDS011;44389;51.578;5.456;2023-05-18T01:56:31;16.00;;;7.32;;
58621;SDS011;44389;51.578;5.456;2023-05-18T01:58:58;20.50;;;8.02;;
58621;SDS011;44389;51.578;5.456;2023-05-18T02:01:24;16.20;;;7.35;;
58621;SDS011;44389;51.578;5.456;2023-05-18T02:03:50;17.08;;;7.75;;
58621;SDS011;44389;51.578;5.456;2023-05-18T02:06:15;17.02;;;7.93;;
58621;SDS011;44389;51.578;5.456;2023-05-18T02:08:41;16.95;;;7.70;;
58621;SDS011;44389;51.578;5.456;2023-05-18T02:11:07;17.67;;;7.82;;
58621;SDS011;44389;51.578;5.456;2023-05-18T02:13:32;15.10;;;7.40;;
58621;SDS011;44389;51.578;5.456;2023-05-18T02:15:57;16.27;;;7.63;;
58621;SDS011;44389;51.578;5.456;2023-05-18T02:18:22;20.17;;;7.97;;
58621;SDS011;44389;51.578;5.456;2023-05-18T02:20:50;16.98;;;7.90;;
58621;SDS011;44389;51.578;5.456;2023-05-18T02:23:22;14.73;;;7.55;;
58621;SDS011;44389;51.578;5.456;2023-05-18T02:25:48;15.68;;;7.90;;
58621;SDS011;44389;51.578;5.456;2023-05-18T02:28:13;14.07;;;8.02;;
58621;SDS011;44389;51.578;5.456;2023-05-18T02:30:38;21.52;;;8.60;;
58621;SDS011;44389;51.578;5.456;2023-05-18T02:33:04;16.90;;;7.97;;
58621;SDS011;44389;51.578;5.456;2023-05-18T02:35:29;17.05;;;8.18;;
58621;SDS011;44389;51.578;5.456;2023-05-18T02:37:54;17.58;;;7.95;;
58621;SDS011;44389;51.578;5.456;2023-05-18T02:40:22;18.30;;;7.72;;
58621;SDS011;44389;51.578;5.456;2023-05-18T02:42:47;15.38;;;7.85;;
58621;SDS011;44389;51.578;5.456;2023-05-18T02:45:12;18.17;;;7.78;;
58621;SDS011;44389;51.578;5.456;2023-05-18T02:47:37;20.48;;;8.23;;
58621;SDS011;44389;51.578;5.456;2023-05-18T02:50:03;12.85;;;7.25;;
58621;SDS011;44389;51.578;5.456;2023-05-18T02:52:28;15.90;;;7.55;;
58621;SDS011;44389;51.578;5.456;2023-05-18T02:54:54;13.30;;;7.18;;
58621;SDS011;44389;51.578;5.456;2023-05-18T02:57:20;14.27;;;7.35;;
58621;SDS011;44389;51.578;5.456;2023-05-18T02:59:46;17.02;;;7.35;;
58621;SDS011;44389;51.578;5.456;2023-05-18T03:02:11;12.60;;;7.35;;
58621;SDS011;44389;51.578;5.456;2023-05-18T03:04:40;21.25;;;8.15;;
58621;SDS011;44389;51.578;5.456;2023-05-18T03:07:05;17.52;;;8.07;;
58621;SDS011;44389;51.578;5.456;2023-05-18T03:09:31;18.10;;;8.15;;
58621;SDS011;44389;51.578;5.456;2023-05-18T03:11:57;15.25;;;8.27;;
58621;SDS011;44389;51.578;5.456;2023-05-18T03:14:22;14.18;;;7.85;;
58621;SDS011;44389;51.578;5.456;2023-05-18T03:16:48;14.40;;;7.75;;
58621;SDS011;44389;51.578;5.456;2023-05-18T03:19:18;18.55;;;8.45;;
58621;SDS011;44389;51.578;5.456;2023-05-18T03:21:43;16.77;;;7.68;;
58621;SDS011;44389;51.578;5.456;2023-05-18T03:24:08;16.15;;;8.68;;
58621;SDS011;44389;51.578;5.456;2023-05-18T03:26:33;16.88;;;7.50;;
58621;SDS011;44389;51.578;5.456;2023-05-18T03:28:59;15.45;;;8.38;;
58621;SDS011;44389;51.578;5.456;2023-05-18T03:31:25;17.67;;;8.52;;
58621;SDS011;44389;51.578;5.456;2023-05-18T03:33:51;12.85;;;8.45;;
58621;SDS011;44389;51.578;5.456;2023-05-18T03:36:16;18.00;;;8.60;;
58621;SDS011;44389;51.578;5.456;2023-05-18T03:38:41;20.05;;;8.80;;
58621;SDS011;44389;51.578;5.456;2023-05-18T03:41:10;16.52;;;8.38;;
58621;SDS011;44389;51.578;5.456;2023-05-18T03:43:36;18.70;;;8.20;;
58621;SDS011;44389;51.578;5.456;2023-05-18T03:46:01;18.90;;;8.77;;
58621;SDS011;44389;51.578;5.456;2023-05-18T03:48:26;16.98;;;8.10;;
58621;SDS011;44389;51.578;5.456;2023-05-18T03:50:52;18.17;;;9.27;;
58621;SDS011;44389;51.578;5.456;2023-05-18T03:53:17;20.98;;;8.93;;
58621;SDS011;44389;51.578;5.456;2023-05-18T03:55:45;18.85;;;9.07;;
58621;SDS011;44389;51.578;5.456;2023-05-18T03:58:13;14.45;;;8.90;;
58621;SDS011;44389;51.578;5.456;2023-05-18T04:00:39;19.77;;;8.82;;
58621;SDS011;44389;51.578;5.456;2023-05-18T04:03:04;18.85;;;8.73;;
58621;SDS011;44389;51.578;5.456;2023-05-18T04:05:30;17.38;;;9.80;;
58621;SDS011;44389;51.578;5.456;2023-05-18T04:07:55;17.58;;;9.05;;
58621;SDS011;44389;51.578;5.456;2023-05-18T04:10:21;17.17;;;9.13;;
58621;SDS011;44389;51.578;5.456;2023-05-18T04:12:47;16.60;;;9.48;;
58621;SDS011;44389;51.578;5.456;2023-05-18T04:15:13;19.35;;;9.05;;
58621;SDS011;44389;51.578;5.456;2023-05-18T04:17:39;16.33;;;8.65;;
58621;SDS011;44389;51.578;5.456;2023-05-18T04:20:09;18.17;;;9.93;;
58621;SDS011;44389;51.578;5.456;2023-05-18T04:22:41;20.52;;;9.65;;
58621;SDS011;44389;51.578;5.456;2023-05-18T04:25:10;15.18;;;9.55;;
58621;SDS011;44389;51.578;5.456;2023-05-18T04:27:38;19.43;;;10.53;;
58621;SDS011;44389;51.578;5.456;2023-05-18T04:30:04;14.90;;;9.55;;
58621;SDS011;44389;51.578;5.456;2023-05-18T04:32:32;17.73;;;9.57;;
58621;SDS011;44389;51.578;5.456;2023-05-18T04:35:00;20.13;;;9.43;;
58621;SDS011;44389;51.578;5.456;2023-05-18T04:37:26;17.50;;;9.45;;
58621;SDS011;44389;51.578;5.456;2023-05-18T04:39:52;15.95;;;9.70;;
58621;SDS011;44389;51.578;5.456;2023-05-18T04:42:17;19.13;;;9.20;;
58621;SDS011;44389;51.578;5.456;2023-05-18T04:44:43;17.73;;;9.05;;
58621;SDS011;44389;51.578;5.456;2023-05-18T04:47:09;16.05;;;10.23;;
58621;SDS011;44389;51.578;5.456;2023-05-18T04:49:34;18.90;;;9.73;;
58621;SDS011;44389;51.578;5.456;2023-05-18T04:51:59;19.70;;;9.93;;
58621;SDS011;44389;51.578;5.456;2023-05-18T04:54:25;21.65;;;9.73;;
58621;SDS011;44389;51.578;5.456;2023-05-18T04:56:54;17.65;;;8.82;;
58621;SDS011;44389;51.578;5.456;2023-05-18T04:59:20;13.57;;;8.65;;
58621;SDS011;44389;51.578;5.456;2023-05-18T05:01:50;21.90;;;8.43;;
58621;SDS011;44389;51.578;5.456;2023-05-18T05:04:19;15.75;;;9.18;;
58621;SDS011;44389;51.578;5.456;2023-05-18T05:06:45;21.80;;;9.63;;
58621;SDS011;44389;51.578;5.456;2023-05-18T05:09:10;20.05;;;9.40;;
58621;SDS011;44389;51.578;5.456;2023-05-18T05:11:38;20.48;;;9.20;;
58621;SDS011;44389;51.578;5.456;2023-05-18T05:14:03;14.25;;;8.52;;
58621;SDS011;44389;51.578;5.456;2023-05-18T05:16:28;17.58;;;9.82;;
58621;SDS011;44389;51.578;5.456;2023-05-18T05:18:54;19.83;;;9.63;;
58621;SDS011;44389;51.578;5.456;2023-05-18T05:21:19;17.50;;;8.95;;
58621;SDS011;44389;51.578;5.456;2023-05-18T05:23:44;16.50;;;8.75;;
58621;SDS011;44389;51.578;5.456;2023-05-18T05:26:10;20.80;;;9.60;;
58621;SDS011;44389;51.578;5.456;2023-05-18T05:28:35;17.67;;;8.70;;
58621;SDS011;44389;51.578;5.456;2023-05-18T05:31:01;15.07;;;8.23;;
58621;SDS011;44389;51.578;5.456;2023-05-18T05:33:26;17.67;;;8.48;;
58621;SDS011;44389;51.578;5.456;2023-05-18T05:35:52;19.35;;;8.52;;
58621;SDS011;44389;51.578;5.456;2023-05-18T05:38:17;18.98;;;8.48;;
58621;SDS011;44389;51.578;5.456;2023-05-18T05:40:42;15.45;;;8.70;;
58621;SDS011;44389;51.578;5.456;2023-05-18T05:43:08;21.25;;;7.80;;
58621;SDS011;44389;51.578;5.456;2023-05-18T05:45:33;14.18;;;8.10;;
58621;SDS011;44389;51.578;5.456;2023-05-18T05:47:59;16.05;;;8.45;;
58621;SDS011;44389;51.578;5.456;2023-05-18T05:50:24;18.15;;;9.05;;
58621;SDS011;44389;51.578;5.456;2023-05-18T05:52:50;24.05;;;8.90;;
58621;SDS011;44389;51.578;5.456;2023-05-18T05:55:15;15.80;;;8.32;;
58621;SDS011;44389;51.578;5.456;2023-05-18T05:57:40;16.05;;;7.93;;
58621;SDS011;44389;51.578;5.456;2023-05-18T06:00:07;19.77;;;7.95;;
58621;SDS011;44389;51.578;5.456;2023-05-18T06:02:37;13.38;;;7.47;;
58621;SDS011;44389;51.578;5.456;2023-05-18T06:05:02;16.40;;;8.38;;
58621;SDS011;44389;51.578;5.456;2023-05-18T06:07:27;17.05;;;7.50;;
58621;SDS011;44389;51.578;5.456;2023-05-18T06:09:54;19.02;;;8.02;;
58621;SDS011;44389;51.578;5.456;2023-05-18T06:12:19;17.42;;;7.88;;
58621;SDS011;44389;51.578;5.456;2023-05-18T06:14:45;17.63;;;7.20;;
58621;SDS011;44389;51.578;5.456;2023-05-18T06:17:11;15.07;;;7.75;;
58621;SDS011;44389;51.578;5.456;2023-05-18T06:19:36;14.88;;;7.18;;
58621;SDS011;44389;51.578;5.456;2023-05-18T06:22:01;11.63;;;6.60;;
58621;SDS011;44389;51.578;5.456;2023-05-18T06:24:26;14.68;;;6.60;;
58621;SDS011;44389;51.578;5.456;2023-05-18T06:26:52;15.45;;;6.47;;
58621;SDS011;44389;51.578;5.456;2023-05-18T06:29:17;15.70;;;6.68;;
58621;SDS011;44389;51.578;5.456;2023-05-18T06:31:42;13.95;;;6.20;;
58621;SDS011;44389;51.578;5.456;2023-05-18T06:34:08;14.88;;;6.78;;
58621;SDS011;44389;51.578;5.456;2023-05-18T06:36:33;15.18;;;6.30;;
58621;SDS011;44389;51.578;5.456;2023-05-18T06:38:58;16.38;;;6.47;;
58621;SDS011;44389;51.578;5.456;2023-05-18T06:41:24;15.93;;;6.88;;
58621;SDS011;44389;51.578;5.456;2023-05-18T06:43:49;16.05;;;6.43;;
58621;SDS011;44389;51.578;5.456;2023-05-18T06:46:18;17.67;;;6.35;;
58621;SDS011;44389;51.578;5.456;2023-05-18T06:48:45;13.57;;;6.22;;
58621;SDS011;44389;51.578;5.456;2023-05-18T06:51:11;15.18;;;6.10;;
58621;SDS011;44389;51.578;5.456;2023-05-18T06:53:36;17.20;;;6.10;;
58621;SDS011;44389;51.578;5.456;2023-05-18T06:56:01;16.05;;;5.82;;
58621;SDS011;44389;51.578;5.456;2023-05-18T06:58:28;13.50;;;6.00;;
58621;SDS011;44389;51.578;5.456;2023-05-18T07:00:54;16.15;;;5.90;;
58621;SDS011;44389;51.578;5.456;2023-05-18T07:03:19;15.35;;;6.00;;
58621;SDS011;44389;51.578;5.456;2023-05-18T07:05:44;13.80;;;6.43;;
58621;SDS011;44389;51.578;5.456;2023-05-18T07:08:09;11.80;;;6.10;;
58621;SDS011;44389;51.578;5.456;2023-05-18T07:10:35;15.65;;;6.15;;
58621;SDS011;44389;51.578;5.456;2023-05-18T07:13:01;12.32;;;5.88;;
58621;SDS011;44389;51.578;5.456;2023-05-18T07:15:26;13.75;;;5.60;;
58621;SDS011;44389;51.578;5.456;2023-05-18T07:17:51;14.52;;;5.68;;
58621;SDS011;44389;51.578;5.456;2023-05-18T07:20:17;15.45;;;6.25;;
58621;SDS011;44389;51.578;5.456;2023-05-18T07:22:42;14.63;;;5.70;;
58621;SDS011;44389;51.578;5.456;2023-05-18T07:25:07;14.60;;;5.60;;
58621;SDS011;44389;51.578;5.456;2023-05-18T07:27:33;14.18;;;6.07;;
58621;SDS011;44389;51.578;5.456;2023-05-18T07:29:58;14.10;;;5.88;;
58621;SDS011;44389;51.578;5.456;2023-05-18T07:32:23;14.75;;;5.65;;
58621;SDS011;44389;51.578;5.456;2023-05-18T07:34:49;17.25;;;5.47;;
58621;SDS011;44389;51.578;5.456;2023-05-18T07:37:14;16.98;;;5.80;;
58621;SDS011;44389;51.578;5.456;2023-05-18T07:39:40;14.20;;;5.93;;
58621;SDS011;44389;51.578;5.456;2023-05-18T07:42:05;12.70;;;5.28;;
58621;SDS011;44389;51.578;5.456;2023-05-18T07:44:32;13.80;;;6.10;;
58621;SDS011;44389;51.578;5.456;2023-05-18T07:46:57;13.35;;;6.15;;
58621;SDS011;44389;51.578;5.456;2023-05-18T07:49:22;15.38;;;6.50;;
58621;SDS011;44389;51.578;5.456;2023-05-18T07:51:48;11.65;;;5.50;;
58621;SDS011;44389;51.578;5.456;2023-05-18T07:54:14;12.70;;;5.82;;
58621;SDS011;44389;51.578;5.456;2023-05-18T07:56:39;16.02;;;5.40;;
58621;SDS011;44389;51.578;5.456;2023-05-18T07:59:06;14.73;;;6.13;;
58621;SDS011;44389;51.578;5.456;2023-05-18T08:01:31;13.57;;;5.93;;
58621;SDS011;44389;51.578;5.456;2023-05-18T08:03:57;13.18;;;5.88;;
58621;SDS011;44389;51.578;5.456;2023-05-18T08:06:22;13.85;;;5.95;;
58621;SDS011;44389;51.578;5.456;2023-05-18T08:08:48;14.07;;;5.85;;
58621;SDS011;44389;51.578;5.456;2023-05-18T08:11:13;13.55;;;5.95;;
58621;SDS011;44389;51.578;5.456;2023-05-18T08:13:38;13.68;;;5.35;;
58621;SDS011;44389;51.578;5.456;2023-05-18T08:16:04;13.55;;;5.35;;
58621;SDS011;44389;51.578;5.456;2023-05-18T08:18:29;13.45;;;5.60;;
58621;SDS011;44389;51.578;5.456;2023-05-18T08:20:56;14.73;;;5.93;;
58621;SDS011;44389;51.578;5.456;2023-05-18T08:23:22;12.18;;;4.85;;
58621;SDS011;44389;51.578;5.456;2023-05-18T08:25:48;15.02;;;4.93;;
58621;SDS011;44389;51.578;5.456;2023-05-18T08:28:13;14.30;;;5.03;;
58621;SDS011;44389;51.578;5.456;2023-05-18T08:30:39;14.57;;;5.28;;
58621;SDS011;44389;51.578;5.456;2023-05-18T08:33:04;13.52;;;5.05;;
58621;SDS011;44389;51.578;5.456;2023-05-18T08:35:29;12.63;;;4.45;;
58621;SDS011;44389;51.578;5.456;2023-05-18T08:37:56;15.02;;;5.03;;
58621;SDS011;44389;51.578;5.456;2023-05-18T08:40:21;10.70;;;4.55;;
58621;SDS011;44389;51.578;5.456;2023-05-18T08:42:51;14.45;;;5.03;;
58621;SDS011;44389;51.578;5.456;2023-05-18T08:45:36;12.57;;;5.30;;
58621;SDS011;44389;51.578;5.456;2023-05-18T08:48:14;11.43;;;4.63;;
58621;SDS011;44389;51.578;5.456;2023-05-18T08:50:40;11.65;;;4.57;;
58621;SDS011;44389;51.578;5.456;2023-05-18T08:53:06;14.23;;;5.25;;
58621;SDS011;44389;51.578;5.456;2023-05-18T08:55:34;10.50;;;4.63;;
58621;SDS011;44389;51.578;5.456;2023-05-18T08:58:01;12.52;;;4.22;;
58621;SDS011;44389;51.578;5.456;2023-05-18T09:00:28;12.20;;;4.72;;
58621;SDS011;44389;51.578;5.456;2023-05-18T09:02:54;11.18;;;4.47;;
58621;SDS011;44389;51.578;5.456;2023-05-18T09:05:20;10.45;;;4.47;;
58621;SDS011;44389;51.578;5.456;2023-05-18T09:07:47;13.35;;;4.50;;
58621;SDS011;44389;51.578;5.456;2023-05-18T09:10:14;11.60;;;4.60;;
58621;SDS011;44389;51.578;5.456;2023-05-18T09:12:40;11.75;;;4.45;;
58621;SDS011;44389;51.578;5.456;2023-05-18T09:15:08;9.73;;;4.00;;
58621;SDS011;44389;51.578;5.456;2023-05-18T09:20:00;13.87;;;4.23;;
58621;SDS011;44389;51.578;5.456;2023-05-18T09:22:25;11.20;;;4.30;;
58621;SDS011;44389;51.578;5.456;2023-05-18T09:24:51;11.80;;;4.72;;
58621;SDS011;44389;51.578;5.456;2023-05-18T09:27:17;14.80;;;4.90;;
58621;SDS011;44389;51.578;5.456;2023-05-18T09:29:55;12.15;;;5.18;;
58621;SDS011;44389;51.578;5.456;2023-05-18T09:32:22;10.00;;;4.35;;
58621;SDS011;44389;51.578;5.456;2023-05-18T09:34:47;13.57;;;4.43;;
58621;SDS011;44389;51.578;5.456;2023-05-18T09:37:17;12.38;;;4.45;;
58621;SDS011;44389;51.578;5.456;2023-05-18T09:39:44;13.15;;;4.30;;
58621;SDS011;44389;51.578;5.456;2023-05-18T09:42:10;13.23;;;4.55;;
58621;SDS011;44389;51.578;5.456;2023-05-18T09:44:36;12.05;;;4.30;;
58621;SDS011;44389;51.578;5.456;2023-05-18T09:47:02;11.40;;;4.53;;
58621;SDS011;44389;51.578;5.456;2023-05-18T09:49:32;12.30;;;4.45;;
58621;SDS011;44389;51.578;5.456;2023-05-18T09:51:57;14.73;;;4.40;;
58621;SDS011;44389;51.578;5.456;2023-05-18T09:54:25;9.93;;;4.07;;
58621;SDS011;44389;51.578;5.456;2023-05-18T09:56:51;10.32;;;3.70;;
58621;SDS011;44389;51.578;5.456;2023-05-18T09:59:16;12.10;;;3.58;;
58621;SDS011;44389;51.578;5.456;2023-05-18T10:01:54;10.10;;;4.15;;
58621;SDS011;44389;51.578;5.456;2023-05-18T10:04:39;13.38;;;4.18;;
58621;SDS011;44389;51.578;5.456;2023-05-18T10:07:09;9.15;;;3.78;;
58621;SDS011;44389;51.578;5.456;2023-05-18T10:09:39;12.07;;;4.00;;
58621;SDS011;44389;51.578;5.456;2023-05-18T10:14:41;11.35;;;4.18;;
58621;SDS011;44389;51.578;5.456;2023-05-18T10:17:09;13.27;;;4.43;;
58621;SDS011;44389;51.578;5.456;2023-05-18T10:19:36;9.52;;;3.90;;
58621;SDS011;44389;51.578;5.456;2023-05-18T10:22:03;11.07;;;3.97;;
58621;SDS011;44389;51.578;5.456;2023-05-18T10:24:30;10.93;;;4.35;;
58621;SDS011;44389;51.578;5.456;2023-05-18T10:27:00;12.85;;;4.25;;
58621;SDS011;44389;51.578;5.456;2023-05-18T10:29:29;8.88;;;3.75;;
58621;SDS011;44389;51.578;5.456;2023-05-18T10:31:56;9.68;;;3.78;;
58621;SDS011;44389;51.578;5.456;2023-05-18T10:34:27;14.52;;;4.53;;
58621;SDS011;44389;51.578;5.456;2023-05-18T10:36:52;11.93;;;4.22;;
58621;SDS011;44389;51.578;5.456;2023-05-18T10:39:19;11.05;;;4.07;;
58621;SDS011;44389;51.578;5.456;2023-05-18T10:41:45;11.85;;;4.38;;
58621;SDS011;44389;51.578;5.456;2023-05-18T10:44:12;8.93;;;3.93;;
58621;SDS011;44389;51.578;5.456;2023-05-18T10:46:38;12.23;;;3.95;;
58621;SDS011;44389;51.578;5.456;2023-05-18T10:49:05;11.63;;;4.63;;
58621;SDS011;44389;51.578;5.456;2023-05-18T10:51:37;14.43;;;4.35;;
58621;SDS011;44389;51.578;5.456;2023-05-18T10:54:12;10.23;;;4.30;;
58621;SDS011;44389;51.578;5.456;2023-05-18T10:56:39;10.93;;;4.15;;
58621;SDS011;44389;51.578;5.456;2023-05-18T10:59:09;13.48;;;4.95;;
58621;SDS011;44389;51.578;5.456;2023-05-18T11:01:37;12.10;;;4.88;;
58621;SDS011;44389;51.578;5.456;2023-05-18T11:04:04;11.38;;;4.78;;
58621;SDS011;44389;51.578;5.456;2023-05-18T11:06:30;11.38;;;4.18;;
58621;SDS011;44389;51.578;5.456;2023-05-18T11:08:57;11.30;;;4.82;;
58621;SDS011;44389;51.578;5.456;2023-05-18T11:11:22;9.43;;;4.45;;
58621;SDS011;44389;51.578;5.456;2023-05-18T11:13:50;11.88;;;4.65;;
58621;SDS011;44389;51.578;5.456;2023-05-18T11:16:15;7.65;;;4.20;;
58621;SDS011;44389;51.578;5.456;2023-05-18T11:26:43;12.40;;;4.63;;
58621;SDS011;44389;51.578;5.456;2023-05-18T11:29:17;9.30;;;4.57;;
58621;SDS011;44389;51.578;5.456;2023-05-18T11:31:44;11.00;;;4.28;;
58621;SDS011;44389;51.578;5.456;2023-05-18T11:37:04;10.25;;;3.90;;
58621;SDS011;44389;51.578;5.456;2023-05-18T11:39:30;11.20;;;3.42;;
58621;SDS011;44389;51.578;5.456;2023-05-18T11:44:33;11.85;;;3.95;;
58621;SDS011;44389;51.578;5.456;2023-05-18T11:47:03;10.30;;;3.80;;
58621;SDS011;44389;51.578;5.456;2023-05-18T11:54:27;9.83;;;3.50;;
58621;SDS011;44389;51.578;5.456;2023-05-18T11:56:57;10.10;;;3.45;;
58621;SDS011;44389;51.578;5.456;2023-05-18T11:59:29;13.02;;;4.57;;
58621;SDS011;44389;51.578;5.456;2023-05-18T12:01:57;11.48;;;4.35;;
58621;SDS011;44389;51.578;5.456;2023-05-18T12:04:24;10.05;;;4.20;;
58621;SDS011;44389;51.578;5.456;2023-05-18T12:06:50;12.07;;;4.57;;
58621;SDS011;44389;51.578;5.456;2023-05-18T12:09:17;11.35;;;4.22;;
58621;SDS011;44389;51.578;5.456;2023-05-18T12:11:43;14.63;;;4.50;;
58621;SDS011;44389;51.578;5.456;2023-05-18T12:14:08;10.73;;;4.28;;
58621;SDS011;44389;51.578;5.456;2023-05-18T12:16:35;9.15;;;3.90;;
58621;SDS011;44389;51.578;5.456;2023-05-18T12:19:00;10.70;;;4.57;;
58621;SDS011;44389;51.578;5.456;2023-05-18T12:21:26;10.10;;;4.40;;
58621;SDS011;44389;51.578;5.456;2023-05-18T12:24:00;11.27;;;4.53;;
58621;SDS011;44389;51.578;5.456;2023-05-18T12:26:25;13.20;;;4.53;;
58621;SDS011;44389;51.578;5.456;2023-05-18T12:28:52;16.60;;;5.30;;
58621;SDS011;44389;51.578;5.456;2023-05-18T12:31:18;14.80;;;5.18;;
58621;SDS011;44389;51.578;5.456;2023-05-18T12:33:44;12.38;;;4.65;;
58621;SDS011;44389;51.578;5.456;2023-05-18T12:36:10;10.57;;;4.65;;
58621;SDS011;44389;51.578;5.456;2023-05-18T12:38:36;11.07;;;4.60;;
58621;SDS011;44389;51.578;5.456;2023-05-18T12:41:02;12.70;;;4.53;;
58621;SDS011;44389;51.578;5.456;2023-05-18T12:43:31;9.50;;;4.00;;
58621;SDS011;44389;51.578;5.456;2023-05-18T12:46:00;11.68;;;4.65;;
58621;SDS011;44389;51.578;5.456;2023-05-18T12:48:26;11.85;;;4.72;;
58621;SDS011;44389;51.578;5.456;2023-05-18T12:50:51;14.73;;;4.70;;
58621;SDS011;44389;51.578;5.456;2023-05-18T12:53:17;9.15;;;4.28;;
58621;SDS011;44389;51.578;5.456;2023-05-18T12:55:43;13.70;;;5.15;;
58621;SDS011;44389;51.578;5.456;2023-05-18T12:58:12;12.38;;;4.30;;
58621;SDS011;44389;51.578;5.456;2023-05-18T13:00:44;10.38;;;4.35;;
58621;SDS011;44389;51.578;5.456;2023-05-18T13:03:19;16.27;;;5.00;;
58621;SDS011;44389;51.578;5.456;2023-05-18T13:06:00;11.90;;;5.05;;
58621;SDS011;44389;51.578;5.456;2023-05-18T13:08:28;12.32;;;4.65;;
58621;SDS011;44389;51.578;5.456;2023-05-18T13:10:59;9.88;;;3.92;;
58621;SDS011;44389;51.578;5.456;2023-05-18T13:13:26;10.88;;;4.72;;
58621;SDS011;44389;51.578;5.456;2023-05-18T13:15:51;9.82;;;4.10;;
58621;SDS011;44389;51.578;5.456;2023-05-18T13:18:17;11.38;;;4.22;;
58621;SDS011;44389;51.578;5.456;2023-05-18T13:20:47;11.50;;;4.65;;
58621;SDS011;44389;51.578;5.456;2023-05-18T13:23:19;10.75;;;3.78;;
58621;SDS011;44389;51.578;5.456;2023-05-18T13:25:46;13.38;;;3.90;;
58621;SDS011;44389;51.578;5.456;2023-05-18T13:28:13;10.32;;;3.78;;
58621;SDS011;44389;51.578;5.456;2023-05-18T13:30:40;13.50;;;4.05;;
58621;SDS011;44389;51.578;5.456;2023-05-18T13:33:07;11.65;;;3.60;;
58621;SDS011;44389;51.578;5.456;2023-05-18T13:35:34;10.60;;;3.92;;
58621;SDS011;44389;51.578;5.456;2023-05-18T13:37:59;8.95;;;3.65;;
58621;SDS011;44389;51.578;5.456;2023-05-18T13:40:25;9.35;;;3.35;;
58621;SDS011;44389;51.578;5.456;2023-05-18T13:42:51;9.98;;;3.83;;
58621;SDS011;44389;51.578;5.456;2023-05-18T13:45:17;8.73;;;3.40;;
58621;SDS011;44389;51.578;5.456;2023-05-18T13:47:42;10.27;;;4.00;;
58621;SDS011;44389;51.578;5.456;2023-05-18T13:50:11;13.23;;;3.78;;
58621;SDS011;44389;51.578;5.456;2023-05-18T13:52:37;9.95;;;3.80;;
58621;SDS011;44389;51.578;5.456;2023-05-18T13:55:03;9.55;;;3.90;;
58621;SDS011;44389;51.578;5.456;2023-05-18T13:57:31;7.85;;;3.42;;
58621;SDS011;44389;51.578;5.456;2023-05-18T13:59:57;9.52;;;3.78;;
58621;SDS011;44389;51.578;5.456;2023-05-18T14:02:24;17.23;;;4.83;;
58621;SDS011;44389;51.578;5.456;2023-05-18T14:04:50;8.75;;;3.78;;
58621;SDS011;44389;51.578;5.456;2023-05-18T14:07:15;11.05;;;4.07;;
58621;SDS011;44389;51.578;5.456;2023-05-18T14:09:40;11.50;;;3.92;;
58621;SDS011;44389;51.578;5.456;2023-05-18T14:12:06;12.63;;;4.45;;
58621;SDS011;44389;51.578;5.456;2023-05-18T14:14:32;12.75;;;4.43;;
58621;SDS011;44389;51.578;5.456;2023-05-18T14:16:57;12.02;;;4.60;;
58621;SDS011;44389;51.578;5.456;2023-05-18T14:19:23;11.70;;;4.53;;
58621;SDS011;44389;51.578;5.456;2023-05-18T14:21:48;12.75;;;4.68;;
58621;SDS011;44389;51.578;5.456;2023-05-18T14:24:13;11.05;;;4.30;;
58621;SDS011;44389;51.578;5.456;2023-05-18T14:26:39;12.18;;;4.05;;
58621;SDS011;44389;51.578;5.456;2023-05-18T14:29:05;9.80;;;4.10;;
58621;SDS011;44389;51.578;5.456;2023-05-18T14:31:30;12.68;;;4.57;;
58621;SDS011;44389;51.578;5.456;2023-05-18T14:33:56;8.63;;;4.10;;
58621;SDS011;44389;51.578;5.456;2023-05-18T14:36:21;8.77;;;4.18;;
58621;SDS011;44389;51.578;5.456;2023-05-18T14:38:46;14.00;;;3.97;;
58621;SDS011;44389;51.578;5.456;2023-05-18T14:41:12;10.02;;;4.22;;
58621;SDS011;44389;51.578;5.456;2023-05-18T14:43:37;10.95;;;4.32;;
58621;SDS011;44389;51.578;5.456;2023-05-18T14:46:02;11.52;;;3.97;;
58621;SDS011;44389;51.578;5.456;2023-05-18T14:48:28;12.98;;;4.13;;
58621;SDS011;44389;51.578;5.456;2023-05-18T14:50:53;10.35;;;4.03;;
58621;SDS011;44389;51.578;5.456;2023-05-18T14:53:19;10.45;;;4.22;;
58621;SDS011;44389;51.578;5.456;2023-05-18T14:55:44;8.23;;;3.70;;
58621;SDS011;44389;51.578;5.456;2023-05-18T14:58:10;11.65;;;4.22;;
58621;SDS011;44389;51.578;5.456;2023-05-18T15:00:38;13.25;;;4.25;;
58621;SDS011;44389;51.578;5.456;2023-05-18T15:03:04;10.50;;;4.00;;
58621;SDS011;44389;51.578;5.456;2023-05-18T15:05:30;10.52;;;4.32;;
58621;SDS011;44389;51.578;5.456;2023-05-18T15:07:55;11.20;;;4.10;;